Terminal Aerodrome Forecast
Issued by NWS Louisville, KY

Home | Current Version | Previous Version | Text Only | Print | Product List | Glossary On
Versions: 1 2 3 4 5 6 7 8 9 10 11 12 13 14 15 16 17 18 19 20
119
FTUS43 KLMK 210106 AAA
TAFLEX
TAF AMD
KLEX 210106Z 2101/2124 23012KT P6SM SCT060 BKN120
     FM210300 23011KT P6SM VCTS SCT050CB BKN120
      TEMPO 2105/2107 VRB15G25KT 5SM -TSRA BKN040CB
     FM210700 27010KT P6SM VCSH BKN022
      TEMPO 2107/2111 29009KT BKN018
     FM211100 31007KT P6SM BKN022=

USA.gov is the U.S. government's official web portal to all federal, state and local government web resources and services.